Ambia, Indiana
Current Conditions -  °F | °C
As of 8:35 AM on Monday 24 Nov 2014 (Local Time) from KDNV Reporting Station
Overcast Overcast  
Wind Chill: 27°   Ceiling: 1100
Heat Index: 38°   Visibility: 10mi
Dew Point: 37°   Wind: 26mph
Humidity: 93%   Direction: 260°W
Pressure: 29.23"   Gusts: 38mph
Location:  40.49°N, 87.52°W
Report Text: KDNV 241335Z AUTO 26023G33KT 10SM OVC011 04/03 A2923 RMK AO2 T00360025
Loading
Personal Weather Stations






























Interactive Weather Map New forecast layout! Learn more

10-Day Weather Forecast

Advertisements
Track Severe Weather on mobile